Laxon, North Carolina
Current Conditions -  °F | °C
As of 8:15 PM on Tuesday 27 Jan 2015 (Local Time) from KTNB Reporting Station
Clear Clear  
Wind Chill: 13°   Ceiling: Unl
Heat Index: 24°   Visibility: 10mi
Dew Point: 14°   Wind: 12mph
Humidity: 66%   Direction: 290°WNW
Pressure: 29.89"   Gusts: 28mph
Location:  36.2085°N, 81.6605°W
Report Text: KTNB 280115Z AUTO 29010G24KT 10SM CLR M04/M10 A2989 RMK AO2 T10451099
Loading
Personal Weather Stations






























Interactive Weather Map New forecast layout! Learn more

10-Day Weather Forecast

Advertisements
Track Severe Weather on mobile